ADDS METAR Data INFO
IDs: Format: Raw Decoded Include TAF

Data at: 0932 UTC 17 Aug 2018

KTLH 170853Z AUTO 00000KT 10SM SCT003 SCT022 24/24 A3014 RMK AO2 SLP205 T02440239 56010